Time;durP1;ratioP1;P1;durP2;ratioP2;P2;SDS_P1;SDS_P2;PMS_P1;PMS_P2;Temp;Humidity;BMP_temperature;BMP_pressure;BME280_temperature;BME280_humidity;BME280_pressure;Samples;Min_cycle;Max_cycle;Signal;HPM_P1;HPM_P2
2021/10/24 00:02:23;;;;;;;8.57;5.63;;;5.50;99.90;;;3.77;100.00;102422.09;2569014;30;137502;-38
2021/10/24 00:04:50;;;;;;;10.38;6.05;;;5.50;99.90;;;3.74;100.00;102421.38;2567310;30;137309;-38
2021/10/24 00:07:18;;;;;;;11.80;5.60;;;5.50;99.90;;;3.74;100.00;102420.53;2567790;30;137493;-38
2021/10/24 00:09:46;;;;;;;12.68;6.28;;;5.50;99.90;;;3.73;100.00;102418.81;2568444;30;137922;-38
2021/10/24 00:12:13;;;;;;;15.00;6.00;;;5.50;99.90;;;3.81;100.00;102416.34;2569664;30;137025;-38
2021/10/24 00:14:41;;;;;;;12.38;5.95;;;5.50;99.90;;;3.76;100.00;102415.88;2565522;30;138509;-38
2021/10/24 00:17:09;;;;;;;13.07;5.65;;;5.50;99.90;;;3.75;100.00;102416.84;2569284;30;138216;-38
2021/10/24 00:19:37;;;;;;;;;;;5.50;99.90;;;3.72;100.00;102409.00;2569095;30;139173;-38
2021/10/24 00:22:05;;;;;;;11.48;6.22;;;5.50;99.90;;;3.71;100.00;102405.44;2570630;30;137347;-38
2021/10/24 00:24:33;;;;;;;10.38;5.72;;;5.50;99.90;;;3.77;100.00;102416.72;2568488;30;139380;-38
2021/10/24 00:27:01;;;;;;;;;;;5.50;99.90;;;3.79;100.00;102409.34;2569799;30;137225;-38
2021/10/24 00:29:28;;;;;;;11.98;5.93;;;5.50;99.90;;;3.77;100.00;102417.56;2569168;30;139150;-38
2021/10/24 00:31:56;;;;;;;11.73;6.50;;;5.50;99.90;;;3.79;100.00;102421.00;2570349;30;137831;-38
2021/10/24 00:34:23;;;;;;;14.48;6.03;;;5.50;99.90;;;3.79;100.00;102415.59;2569766;30;137319;-37
2021/10/24 00:36:53;;;;;;;9.10;5.40;;;5.50;99.90;;;3.78;100.00;102405.78;2569283;30;136939;-38
2021/10/24 00:39:21;;;;;;;11.88;5.75;;;5.50;99.90;;;3.80;100.00;102414.63;2568348;30;139025;-38
2021/10/24 00:41:51;;;;;;;10.43;5.63;;;5.60;99.90;;;3.83;100.00;102411.66;2568492;30;138494;-38
2021/10/24 00:44:26;;;;;;;13.48;5.80;;;5.60;99.90;;;3.84;100.00;102412.50;2570411;30;138117;-38
2021/10/24 00:46:57;;;;;;;12.40;6.05;;;5.60;99.90;;;3.83;100.00;102411.66;2566782;30;139283;-38
2021/10/24 00:49:26;;;;;;;9.52;5.32;;;5.60;99.90;;;3.85;100.00;102409.69;2568134;30;137348;-38
2021/10/24 00:51:55;;;;;;;10.73;5.50;;;5.60;99.90;;;3.87;100.00;102406.88;2568069;30;137142;-38
2021/10/24 00:54:28;;;;;;;13.10;5.47;;;5.60;99.90;;;3.86;100.00;102405.16;2569370;30;138315;-37
2021/10/24 00:56:57;;;;;;;8.55;5.40;;;5.60;99.90;;;3.89;100.00;102396.78;2570104;30;136964;-38
2021/10/24 00:59:27;;;;;;;11.70;5.40;;;5.60;99.90;;;3.89;100.00;102402.19;2567173;30;140415;-38
2021/10/24 01:01:55;;;;;;;;;;;5.70;99.90;;;3.91;100.00;102396.63;2568113;30;137245;-38
2021/10/24 01:04:23;;;;;;;12.77;5.75;;;5.70;99.90;;;3.89;100.00;102399.50;2570497;30;139032;-37
2021/10/24 01:06:53;;;;;;;10.63;5.75;;;5.60;99.90;;;3.88;100.00;102401.31;2568591;30;139130;-38
2021/10/24 01:09:24;;;;;;;9.98;5.25;;;5.60;99.90;;;3.84;100.00;102394.47;2568919;30;138284;-38
2021/10/24 01:11:53;;;;;;;11.05;5.93;;;5.60;99.90;;;3.86;100.00;102397.06;2568172;30;137509;-38
2021/10/24 01:14:20;;;;;;;9.68;5.57;;;5.60;99.90;;;3.82;100.00;102391.03;2567869;30;140867;-37
2021/10/24 01:16:52;;;;;;;11.27;6.18;;;5.60;99.90;;;3.81;100.00;102397.44;2568037;30;138563;-38
2021/10/24 01:19:22;;;;;;;9.75;5.55;;;5.60;99.90;;;3.77;100.00;102390.56;2569020;30;140655;-38
2021/10/24 01:21:52;;;;;;;12.73;5.93;;;5.50;99.90;;;3.77;100.00;102389.72;2567973;30;139539;-38
2021/10/24 01:24:20;;;;;;;9.77;5.72;;;5.50;99.90;;;3.71;100.00;102380.28;2568646;30;138117;-37
2021/10/24 01:26:48;;;;;;;12.40;6.18;;;5.50;99.90;;;3.81;100.00;102377.66;2569811;30;138832;-38
2021/10/24 01:29:16;;;;;;;12.13;5.72;;;5.50;99.90;;;3.87;99.54;102379.88;2569699;30;138332;-38
2021/10/24 01:31:43;;;;;;;10.40;5.43;;;5.60;99.90;;;3.84;99.40;102372.00;2571945;30;139725;-38
2021/10/24 01:34:12;;;;;;;10.70;5.47;;;5.60;99.90;;;3.83;99.41;102373.84;2570047;30;137830;-38
2021/10/24 01:36:41;;;;;;;10.38;5.57;;;5.60;99.90;;;3.84;99.47;102364.75;2569061;30;137951;-38
2021/10/24 01:39:09;;;;;;;9.45;5.05;;;5.60;99.90;;;3.81;99.72;102356.06;2568099;30;139967;-38
2021/10/24 01:41:38;;;;;;;12.65;5.63;;;5.60;99.90;;;3.79;99.79;102355.34;2568194;30;138328;-38
2021/10/24 01:44:06;;;;;;;12.63;5.20;;;5.50;99.90;;;3.77;99.50;102358.19;2567953;30;138409;-38
2021/10/24 01:46:37;;;;;;;9.20;4.80;;;5.50;99.90;;;3.74;99.58;102359.28;2569320;30;138592;-38
2021/10/24 01:49:05;;;;;;;11.73;5.22;;;5.50;99.90;;;3.70;99.70;102348.88;2568465;30;139322;-38
2021/10/24 01:51:32;;;;;;;9.63;5.28;;;5.50;99.90;;;3.68;99.90;102342.75;2567866;30;138218;-38
2021/10/24 01:54:00;;;;;;;11.25;5.18;;;5.50;99.90;;;3.69;99.93;102344.44;2568871;30;137824;-38
2021/10/24 01:56:27;;;;;;;7.95;5.10;;;5.50;99.90;;;3.67;99.93;102338.31;2567001;30;138740;-38
2021/10/24 01:58:55;;;;;;;8.48;4.82;;;5.40;99.90;;;3.65;99.78;102340.31;2571044;30;138073;-38
2021/10/24 02:01:32;;;;;;;10.35;5.20;;;5.40;99.90;;;3.58;99.66;102332.72;2566540;30;137929;-38
2021/10/24 02:04:06;;;;;;;14.68;5.38;;;5.40;99.90;;;3.57;100.00;102336.41;2568969;30;139320;-38
2021/10/24 02:06:50;;;;;;;9.25;5.20;;;5.40;99.90;;;3.58;100.00;102324.63;2569008;30;138790;-38
2021/10/24 02:09:19;;;;;;;10.23;5.22;;;5.40;99.90;;;3.59;100.00;102326.34;2569142;30;139237;-38
2021/10/24 02:11:47;;;;;;;10.30;5.63;;;5.30;99.90;;;3.56;100.00;102326.59;2569158;30;139269;-38
2021/10/24 02:14:15;;;;;;;11.13;5.50;;;5.30;99.90;;;3.56;100.00;102325.72;2568438;30;139431;-38
2021/10/24 02:16:45;;;;;;;10.60;5.15;;;5.30;99.90;;;3.55;100.00;102329.41;2568676;30;139382;-38
2021/10/24 02:19:13;;;;;;;10.85;5.47;;;5.30;99.90;;;3.45;100.00;102311.31;2569629;30;140296;-38
2021/10/24 02:21:41;;;;;;;9.25;5.07;;;5.30;99.90;;;3.48;100.00;102322.84;2569180;30;139732;-38
2021/10/24 02:24:09;;;;;;;8.95;5.43;;;5.30;99.90;;;3.46;100.00;102320.28;2566600;30;139138;-38
2021/10/24 02:26:36;;;;;;;9.93;5.18;;;5.30;99.90;;;3.45;100.00;102319.41;2576040;30;138294;-39
2021/10/24 02:29:04;;;;;;;12.02;5.20;;;5.20;99.90;;;3.40;100.00;102318.06;2565358;30;139427;-39
2021/10/24 02:31:33;;;;;;;10.50;5.13;;;5.20;99.90;;;3.36;100.00;102313.94;2567392;30;138600;-40
2021/10/24 02:34:40;;;;;;;8.68;4.68;;;5.10;99.90;;;3.33;100.00;102311.47;2567520;30;136996;-39
2021/10/24 02:37:19;;;;;;;8.85;5.13;;;5.10;99.90;;;3.30;100.00;102308.06;2567024;30;139066;-39
2021/10/24 02:39:47;;;;;;;9.60;5.30;;;5.10;99.90;;;3.22;100.00;102298.88;2567667;30;140849;-39
2021/10/24 02:42:15;;;;;;;10.68;5.55;;;5.10;99.90;;;3.22;100.00;102296.19;2568348;30;139126;-40
2021/10/24 02:44:43;;;;;;;11.43;5.65;;;5.00;99.90;;;3.19;100.00;102289.22;2568345;30;139977;-39
2021/10/24 02:47:11;;;;;;;9.70;4.93;;;5.00;99.90;;;3.22;100.00;102294.38;2567931;30;139137;-39
2021/10/24 02:49:40;;;;;;;10.48;5.10;;;5.00;99.90;;;3.23;100.00;102301.47;2567269;30;139760;-39
2021/10/24 02:52:07;;;;;;;9.98;5.28;;;5.00;99.90;;;3.24;100.00;102297.78;2568419;30;138873;-39
2021/10/24 02:54:37;;;;;;;10.30;5.57;;;5.00;99.90;;;3.19;100.00;102288.34;2567091;30;139015;-39
2021/10/24 02:57:08;;;;;;;12.32;5.85;;;5.00;99.90;;;3.15;100.00;102295.84;2568663;30;136971;-40
2021/10/24 02:59:35;;;;;;;14.40;6.50;;;4.90;99.90;;;3.09;100.00;102294.53;2568650;30;138249;-39
2021/10/24 03:02:05;;;;;;;9.82;5.15;;;4.90;99.90;;;3.04;100.00;102296.72;2568328;30;139520;-40
2021/10/24 03:04:34;;;;;;;10.00;5.07;;;4.80;99.90;;;3.04;100.00;102285.09;2567904;30;138798;-39
2021/10/24 03:07:02;;;;;;;11.15;5.30;;;4.80;99.90;;;3.00;100.00;102281.78;2568690;30;137648;-40
2021/10/24 03:09:30;;;;;;;9.07;5.07;;;4.80;99.90;;;2.95;100.00;102284.00;2566885;30;139503;-40
2021/10/24 03:11:58;;;;;;;10.50;5.25;;;4.80;99.90;;;2.97;100.00;102287.44;2567382;30;139615;-39
2021/10/24 03:14:25;;;;;;;9.60;5.10;;;4.80;99.90;;;2.92;100.00;102282.44;2566524;30;140729;-39
2021/10/24 03:16:56;;;;;;;9.70;5.22;;;4.70;99.90;;;2.88;100.00;102283.66;2567184;30;137211;-39
2021/10/24 03:19:25;;;;;;;12.30;4.78;;;4.70;99.90;;;2.89;100.00;102274.56;2568690;30;139676;-39
2021/10/24 03:21:55;;;;;;;9.70;5.28;;;4.70;99.90;;;2.90;100.00;102283.53;2567500;30;138489;-39
2021/10/24 03:24:23;;;;;;;;;;;4.70;99.90;;;2.85;100.00;102283.91;2567382;30;138478;-39
2021/10/24 03:26:51;;;;;;;8.70;4.32;;;4.70;99.90;;;2.82;100.00;102285.03;2566533;30;137428;-39
2021/10/24 03:29:18;;;;;;;9.73;4.82;;;4.60;99.90;;;2.81;100.00;102279.75;2568519;30;137387;-39
2021/10/24 03:31:46;;;;;;;10.65;5.20;;;4.60;99.90;;;2.81;100.00;102279.75;2567729;30;140178;-39
2021/10/24 03:34:13;;;;;;;11.60;4.90;;;4.60;99.90;;;2.78;100.00;102280.00;2565910;30;138358;-39
2021/10/24 03:36:41;;;;;;;8.85;4.90;;;4.60;99.90;;;2.76;100.00;102279.28;2567511;30;136935;-39
2021/10/24 03:39:09;;;;;;;;;;;4.60;99.90;;;2.77;100.00;102272.91;2568455;30;138830;-39
2021/10/24 03:41:37;;;;;;;8.10;4.72;;;4.60;99.90;;;2.78;100.00;102274.63;2568260;30;139177;-40
2021/10/24 03:44:05;;;;;;;10.00;5.38;;;4.60;99.90;;;2.77;100.00;102270.22;2568279;30;139471;-39
2021/10/24 03:46:35;;;;;;;10.20;4.38;;;4.60;99.90;;;2.73;100.00;102278.53;2567712;30;139670;-40
2021/10/24 03:49:03;;;;;;;11.27;5.93;;;4.60;99.90;;;2.64;100.00;102267.66;2565800;30;137807;-39
2021/10/24 03:51:31;;;;;;;10.40;4.93;;;4.50;99.90;;;2.64;100.00;102273.88;2566531;30;137636;-40
2021/10/24 03:53:59;;;;;;;7.22;4.57;;;4.50;99.90;;;2.59;100.00;102262.63;2567112;30;138483;-39
2021/10/24 03:56:27;;;;;;;8.77;5.20;;;4.50;99.90;;;2.59;100.00;102271.59;2568625;30;139401;-39
2021/10/24 03:58:55;;;;;;;10.70;5.30;;;4.40;99.90;;;2.56;100.00;102262.88;2568628;30;140811;-39
2021/10/24 04:01:22;;;;;;;8.23;4.40;;;4.40;99.90;;;2.51;100.00;102268.63;2567241;30;140057;-39
2021/10/24 04:03:50;;;;;;;7.88;4.68;;;4.30;99.90;;;2.50;100.00;102271.47;2568315;30;138334;-39
2021/10/24 04:06:17;;;;;;;11.85;5.53;;;4.30;99.90;;;2.52;100.00;102266.81;2568239;30;137030;-39
2021/10/24 04:08:45;;;;;;;8.75;5.28;;;4.30;99.90;;;2.49;100.00;102267.91;2567462;30;139868;-39
2021/10/24 04:11:12;;;;;;;10.10;5.50;;;4.30;99.90;;;2.44;100.00;102254.81;2568791;30;138212;-40
2021/10/24 04:13:40;;;;;;;8.70;4.50;;;4.30;99.90;;;2.44;100.00;102262.03;2569044;30;137335;-39
2021/10/24 04:16:12;;;;;;;11.82;5.40;;;4.30;99.90;;;2.41;100.00;102252.38;2566996;30;136901;-40
2021/10/24 04:18:45;;;;;;;10.38;5.45;;;4.30;99.90;;;2.42;100.00;102258.59;2568929;30;137213;-39
2021/10/24 04:21:13;;;;;;;;;;;4.20;99.90;;;2.43;100.00;102254.94;2568570;30;137719;-40
2021/10/24 04:23:42;;;;;;;10.50;5.55;;;4.30;99.90;;;2.40;100.00;102253.34;2565024;30;139824;-40
2021/10/24 04:26:10;;;;;;;10.93;5.38;;;4.20;99.90;;;2.36;100.00;102254.56;2565400;30;139285;-39
2021/10/24 04:28:37;;;;;;;10.13;5.07;;;4.20;99.90;;;2.31;100.00;102251.38;2567774;30;137358;-39
2021/10/24 04:31:05;;;;;;;11.77;5.55;;;4.20;99.90;;;2.33;100.00;102249.41;2568607;30;138605;-39
2021/10/24 04:33:33;;;;;;;;;;;4.20;99.90;;;2.32;100.00;102241.47;2565408;30;138451;-39
2021/10/24 04:36:02;;;;;;;12.32;4.78;;;4.20;99.90;;;2.34;100.00;102242.22;2567590;30;138120;-39
2021/10/24 04:38:31;;;;;;;10.05;4.97;;;4.20;99.90;;;2.34;100.00;102248.44;2565977;30;140864;-39
2021/10/24 04:40:59;;;;;;;8.88;5.30;;;4.10;99.90;;;2.30;100.00;102246.97;2567474;30;138677;-40
2021/10/24 04:43:27;;;;;;;11.02;5.13;;;4.10;99.90;;;2.27;100.00;102240.03;2567698;30;138547;-40
2021/10/24 04:45:55;;;;;;;;;;;4.10;99.90;;;2.22;100.00;102231.44;2568407;30;139017;-39
2021/10/24 04:48:24;;;;;;;9.73;4.80;;;4.10;99.90;;;2.21;100.00;102232.41;2565973;30;138330;-39
2021/10/24 04:50:52;;;;;;;9.35;4.78;;;4.10;99.90;;;2.17;100.00;102227.41;2566769;30;137389;-39
2021/10/24 04:53:21;;;;;;;7.68;4.35;;;4.10;99.90;;;2.10;100.00;102216.25;2567474;30;140291;-40
2021/10/24 04:55:53;;;;;;;11.27;4.80;;;4.00;99.90;;;2.06;100.00;102220.19;2566982;30;138599;-39
2021/10/24 04:58:22;;;;;;;9.27;5.13;;;3.90;99.90;;;2.00;100.00;102227.78;2567713;30;140364;-40
2021/10/24 05:00:50;;;;;;;9.02;5.07;;;3.90;99.90;;;1.96;100.00;102222.75;2566799;30;137467;-39
2021/10/24 05:03:22;;;;;;;9.77;4.85;;;3.90;99.90;;;1.92;100.00;102218.59;2567245;30;138677;-40
2021/10/24 05:05:49;;;;;;;7.53;4.35;;;3.80;99.90;;;1.89;100.00;102213.44;2567955;30;138901;-39
2021/10/24 05:08:17;;;;;;;10.25;4.85;;;3.80;99.90;;;1.86;100.00;102218.09;2564581;30;140838;-39
2021/10/24 05:10:45;;;;;;;8.73;4.85;;;3.70;99.90;;;1.79;100.00;102216.84;2567882;30;139558;-39
2021/10/24 05:13:12;;;;;;;9.25;4.50;;;3.70;99.90;;;1.69;100.00;102207.78;2568097;30;138405;-39
2021/10/24 05:15:41;;;;;;;9.90;4.95;;;3.60;99.90;;;1.71;100.00;102213.91;2568039;30;138934;-40
2021/10/24 05:18:09;;;;;;;10.05;4.85;;;3.60;99.90;;;1.68;100.00;102217.69;2567000;30;140850;-39
2021/10/24 05:20:37;;;;;;;9.15;4.97;;;3.60;99.90;;;1.66;100.00;102218.78;2566894;30;137505;-40
2021/10/24 05:23:05;;;;;;;9.25;4.93;;;3.50;99.90;;;1.60;100.00;102203.13;2567750;30;138387;-39
2021/10/24 05:25:54;;;;;;;7.68;4.80;;;3.50;99.90;;;1.57;100.00;102210.44;2567267;30;138658;-40
2021/10/24 05:28:23;;;;;;;7.93;4.55;;;3.50;99.90;;;1.56;100.00;102208.72;2568093;30;140373;-39
2021/10/24 05:30:51;;;;;;;9.70;4.90;;;3.50;99.90;;;1.49;100.00;102210.19;2567385;30;136648;-40
2021/10/24 05:33:20;;;;;;;8.60;4.63;;;3.40;99.90;;;1.44;100.00;102204.31;2567464;30;138453;-39
2021/10/24 05:36:12;;;;;;;9.88;4.68;;;3.30;99.90;;;1.39;100.00;102207.34;2564847;30;137011;-39
2021/10/24 05:38:40;;;;;;;8.98;5.18;;;3.30;99.90;;;1.39;100.00;102196.59;2567672;30;139364;-39
2021/10/24 05:41:13;;;;;;;7.30;4.05;;;3.30;99.90;;;1.37;100.00;102203.91;2567706;30;138412;-39
2021/10/24 05:43:40;;;;;;;8.95;5.00;;;3.30;99.90;;;1.31;100.00;102201.72;2567436;30;138203;-39
2021/10/24 05:46:09;;;;;;;8.32;4.20;;;3.20;99.90;;;1.24;100.00;102195.94;2566118;30;137757;-40
2021/10/24 05:48:37;;;;;;;9.25;4.68;;;3.20;99.90;;;1.17;100.00;102197.38;2567375;30;138361;-39
2021/10/24 05:51:10;;;;;;;7.55;4.32;;;3.10;99.90;;;1.09;100.00;102192.59;2566834;30;137512;-40
2021/10/24 05:53:40;;;;;;;7.63;4.35;;;3.00;99.90;;;1.07;100.00;102191.00;2568270;30;140563;-39
2021/10/24 05:56:18;;;;;;;9.30;5.03;;;3.00;99.90;;;1.09;100.00;102189.91;2568190;30;136935;-40
2021/10/24 05:58:46;;;;;;;8.40;4.72;;;3.00;99.90;;;1.08;100.00;102187.34;2566203;30;138423;-39
2021/10/24 06:01:34;;;;;;;8.27;4.32;;;3.00;99.90;;;1.07;100.00;102189.16;2568119;30;136705;-39
2021/10/24 06:04:22;;;;;;;10.02;4.78;;;3.00;99.90;;;1.04;100.00;102184.03;2567335;30;136978;-39
2021/10/24 06:07:09;;;;;;;8.10;4.07;;;3.00;99.90;;;1.00;100.00;102186.06;2564762;30;136833;-39
2021/10/24 06:12:14;;;;;;;9.35;4.43;;;2.90;99.90;;;1.01;100.00;102178.88;2567340;30;138721;-39
2021/10/24 06:14:42;;;;;;;9.40;4.65;;;2.90;99.90;;;1.01;100.00;102178.88;2567853;30;139816;-39
2021/10/24 06:17:12;;;;;;;9.60;4.85;;;2.90;99.90;;;1.03;100.00;102184.13;2566797;30;138279;-39
2021/10/24 06:19:41;;;;;;;9.55;4.35;;;2.90;99.90;;;1.03;100.00;102185.00;2569273;30;139150;-39
2021/10/24 06:22:10;;;;;;;7.90;5.00;;;2.90;99.90;;;1.03;100.00;102176.06;2567679;30;139708;-39
2021/10/24 06:24:39;;;;;;;9.35;4.80;;;2.90;99.90;;;1.02;100.00;102185.97;2566651;30;138412;-39
2021/10/24 06:27:07;;;;;;;10.98;5.05;;;2.90;99.90;;;1.06;100.00;102173.13;2568395;30;139232;-39
2021/10/24 06:29:34;;;;;;;9.38;4.80;;;2.90;99.90;;;1.10;100.00;102170.09;2566202;30;139983;-39
2021/10/24 06:32:06;;;;;;;8.65;4.43;;;3.00;99.90;;;1.13;100.00;102177.09;2568355;30;139476;-39
2021/10/24 06:35:04;;;;;;;9.93;4.90;;;3.00;99.90;;;1.17;100.00;102169.63;2566470;30;138064;-39
2021/10/24 06:37:46;;;;;;;10.65;4.13;;;3.00;99.90;;;1.16;100.00;102166.09;2566997;30;139049;-39
2021/10/24 06:40:18;;;;;;;9.02;4.68;;;3.00;99.90;;;1.20;100.00;102172.09;2567887;30;138343;-39
2021/10/24 06:42:54;;;;;;;10.77;5.07;;;3.10;99.90;;;1.24;100.00;102174.41;2569020;30;138486;-39
2021/10/24 06:45:51;;;;;;;9.10;4.57;;;3.10;99.90;;;1.32;100.00;102170.28;2564948;30;137401;-39
2021/10/24 06:48:57;;;;;;;10.52;4.57;;;3.10;99.90;;;1.36;100.00;102169.09;2566560;30;136926;-39
2021/10/24 06:51:38;;;;;;;8.90;4.57;;;3.20;99.90;;;1.36;100.00;102166.41;2566912;30;139949;-39
2021/10/24 06:54:24;;;;;;;9.45;4.40;;;3.20;99.90;;;1.41;100.00;102164.22;2567858;30;136998;-39
2021/10/24 06:57:11;;;;;;;9.02;4.90;;;3.20;99.90;;;1.45;100.00;102165.69;2568452;30;137000;-39
2021/10/24 06:59:57;;;;;;;10.15;5.00;;;3.30;99.90;;;1.49;100.00;102166.31;2565998;30;136977;-39
2021/10/24 07:02:43;;;;;;;8.70;4.45;;;3.30;99.90;;;1.56;100.00;102173.75;2567575;30;136767;-39
2021/10/24 07:05:46;;;;;;;7.80;4.40;;;3.30;99.90;;;1.61;100.00;102176.09;2567196;30;136888;-39
2021/10/24 07:08:23;;;;;;;9.88;5.13;;;3.40;99.90;;;1.71;100.00;102168.16;2567528;30;139503;-40
2021/10/24 07:10:50;;;;;;;9.38;4.93;;;3.40;99.90;;;1.83;100.00;102163.66;2565535;30;137074;-39
2021/10/24 07:13:18;;;;;;;10.48;5.35;;;3.50;99.90;;;1.96;100.00;102168.91;2567762;30;138444;-40
2021/10/24 07:16:00;;;;;;;10.38;5.28;;;3.60;99.90;;;2.11;100.00;102167.66;2569095;30;139537;-40
2021/10/24 07:18:28;;;;;;;14.20;5.28;;;3.80;99.90;;;2.25;100.00;102173.78;2566630;30;139608;-40
2021/10/24 07:20:56;;;;;;;;;;;3.90;99.90;;;2.46;100.00;102163.06;2567665;30;137267;-40
2021/10/24 07:23:23;;;;;;;9.98;5.70;;;4.10;99.90;;;2.62;100.00;102168.06;2568730;30;137457;-39
2021/10/24 07:26:10;;;;;;;11.73;5.88;;;4.20;99.90;;;2.83;100.00;102169.94;2567715;30;137008;-40
2021/10/24 07:28:37;;;;;;;13.15;4.85;;;4.40;99.90;;;3.01;100.00;102164.84;2566480;30;138630;-39
2021/10/24 07:31:20;;;;;;;11.68;5.53;;;4.60;99.90;;;3.18;100.00;102158.03;2568291;30;138741;-40
2021/10/24 07:34:07;;;;;;;11.25;5.82;;;4.70;99.90;;;3.45;100.00;102154.81;2568143;30;138976;-40
2021/10/24 07:36:42;;;;;;;12.88;6.25;;;5.00;99.90;;;3.62;100.00;102163.28;2567415;30;137586;-39
2021/10/24 07:39:09;;;;;;;12.13;6.63;;;5.10;99.90;;;3.77;100.00;102147.59;2568856;30;139041;-39
2021/10/24 07:41:37;;;;;;;10.68;5.80;;;5.30;99.90;;;3.93;99.34;102147.09;2566316;30;137138;-40
2021/10/24 07:44:07;;;;;;;11.18;5.90;;;5.40;99.90;;;4.12;97.72;102151.69;2567905;30;139444;-40
2021/10/24 07:46:38;;;;;;;12.35;5.68;;;5.60;99.90;;;4.27;96.38;102154.03;2569076;30;138274;-39
2021/10/24 07:49:07;;;;;;;9.90;5.63;;;5.70;99.90;;;4.42;95.68;102141.81;2567891;30;140406;-39
2021/10/24 07:51:36;;;;;;;12.05;5.72;;;5.90;99.90;;;4.53;94.35;102143.53;2565012;30;137965;-40
2021/10/24 07:54:04;;;;;;;10.15;5.25;;;6.00;99.90;;;4.67;94.15;102134.16;2568347;30;138588;-39
2021/10/24 07:56:33;;;;;;;10.75;5.30;;;6.10;99.90;;;4.82;93.36;102141.88;2567753;30;138856;-39
2021/10/24 07:59:21;;;;;;;9.57;4.72;;;6.30;99.90;;;4.93;93.37;102141.72;2568664;30;137146;-40
2021/10/24 08:01:50;;;;;;;9.65;5.13;;;6.40;99.90;;;5.00;92.24;102129.31;2568476;30;139740;-39
2021/10/24 08:04:18;;;;;;;9.73;5.50;;;6.50;99.90;;;5.16;92.76;102128.72;2567779;30;139557;-40
2021/10/24 08:06:47;;;;;;;12.32;4.88;;;6.60;99.90;;;5.26;91.22;102127.88;2566701;30;139750;-40
2021/10/24 08:09:16;;;;;;;8.73;4.55;;;6.70;99.90;;;5.35;90.09;102116.16;2566750;30;139810;-40
2021/10/24 08:11:48;;;;;;;9.30;5.00;;;6.80;99.90;;;5.53;89.57;102113.53;2567049;30;139208;-39
2021/10/24 08:14:16;;;;;;;9.18;4.78;;;7.00;99.90;;;5.66;88.33;102109.69;2567373;30;139687;-41
2021/10/24 08:16:44;;;;;;;8.80;4.70;;;7.10;99.90;;;5.77;87.26;102106.75;2566692;30;137786;-40
2021/10/24 08:19:19;;;;;;;8.82;4.78;;;7.20;99.90;;;5.85;86.43;102103.31;2566861;30;139488;-39
2021/10/24 08:21:52;;;;;;;12.32;4.70;;;7.30;99.90;;;5.97;87.11;102098.56;2567186;30;138507;-40
2021/10/24 08:24:21;;;;;;;9.77;4.18;;;7.40;99.90;;;6.06;87.75;102097.66;2567436;30;140063;-40
2021/10/24 08:26:57;;;;;;;8.05;4.65;;;7.50;99.90;;;6.16;87.68;102089.50;2570218;30;137358;-38
2021/10/24 08:29:25;;;;;;;7.68;4.47;;;7.60;99.90;;;6.20;86.25;102082.75;2569007;30;139036;-38
2021/10/24 08:32:11;;;;;;;8.10;4.20;;;7.70;99.90;;;6.41;84.14;102096.03;2570215;30;136685;-38
2021/10/24 08:34:42;;;;;;;9.02;4.65;;;7.80;99.90;;;6.56;85.80;102100.91;2567467;30;137341;-38
2021/10/24 08:37:11;;;;;;;6.70;3.75;;;7.90;99.90;;;6.68;84.90;102102.41;2569835;30;136690;-38
2021/10/24 08:39:39;;;;;;;8.20;4.03;;;8.00;99.90;;;6.79;85.11;102095.88;2570651;30;138159;-38
2021/10/24 08:42:08;;;;;;;6.15;3.75;;;8.20;99.90;;;6.88;82.60;102092.22;2567734;30;137422;-38
2021/10/24 08:44:36;;;;;;;8.25;3.83;;;8.30;99.90;;;6.96;82.68;102096.00;2568705;30;136849;-38
2021/10/24 08:47:04;;;;;;;7.60;3.97;;;8.40;99.90;;;7.07;82.41;102092.19;2570134;30;137773;-38
2021/10/24 08:49:31;;;;;;;;;;;8.40;99.90;;;7.15;82.16;102092.25;2569805;30;138871;-38
2021/10/24 08:52:02;;;;;;;5.35;3.30;;;8.60;99.90;;;7.27;82.84;102091.00;2569762;30;137301;-38
2021/10/24 08:54:33;;;;;;;7.68;3.20;;;8.60;99.90;;;7.38;81.68;102092.59;2569256;30;138248;-38
2021/10/24 08:57:02;;;;;;;6.38;3.45;;;8.80;99.90;;;7.46;81.16;102080.94;2569537;30;137597;-38
2021/10/24 08:59:29;;;;;;;8.00;3.38;;;8.80;99.90;;;7.56;80.35;102078.94;2567150;30;137245;-38
2021/10/24 09:01:58;;;;;;;7.55;3.10;;;8.90;99.90;;;7.63;78.52;102073.72;2570356;30;136901;-38
2021/10/24 09:04:26;;;;;;;8.75;3.50;;;9.00;99.90;;;7.71;79.18;102078.34;2567271;30;137295;-38
2021/10/24 09:07:02;;;;;;;6.40;3.13;;;9.10;99.90;;;7.79;79.59;102083.81;2569110;30;136714;-38
2021/10/24 09:09:36;;;;;;;6.53;3.30;;;9.10;99.90;;;7.91;78.45;102070.78;2569926;30;138259;-38
2021/10/24 09:12:12;;;;;;;7.13;2.92;;;9.20;99.90;;;7.99;77.68;102078.09;2571452;30;136779;-38
2021/10/24 09:14:54;;;;;;;7.68;2.95;;;9.40;99.90;;;8.05;76.71;102072.00;2570202;30;139533;-39
2021/10/24 09:17:25;;;;;;;6.78;3.35;;;9.50;99.90;;;8.13;77.05;102074.75;2570141;30;137434;-38
2021/10/24 09:19:59;;;;;;;6.28;2.92;;;9.50;99.90;;;8.16;77.61;102058.09;2569186;30;140865;-39
2021/10/24 09:22:39;;;;;;;7.80;2.92;;;9.60;99.90;;;8.28;76.12;102057.78;2568293;30;136895;-38
2021/10/24 09:25:14;;;;;;;8.30;2.90;;;9.60;99.90;;;8.37;76.09;102059.50;2569597;30;140217;-39
2021/10/24 09:27:55;;;;;;;7.30;2.75;;;9.70;99.90;;;8.49;74.80;102063.66;2568644;30;137019;-38
2021/10/24 09:30:30;;;;;;;7.20;2.70;;;9.80;99.90;;;8.51;74.72;102059.91;2568481;30;139975;-38
2021/10/24 09:33:04;;;;;;;8.65;2.90;;;9.90;99.90;;;8.59;75.95;102066.19;2567237;30;137923;-39
2021/10/24 09:35:46;;;;;;;6.07;3.10;;;10.00;99.90;;;8.60;72.73;102065.16;2568314;30;138127;-38
2021/10/24 09:38:41;;;;;;;9.27;2.78;;;10.00;99.90;;;8.68;73.85;102061.59;2568765;30;137998;-38
2021/10/24 09:41:30;;;;;;;10.27;3.08;;;10.10;99.90;;;8.80;73.36;102059.38;2569526;30;140976;-38
2021/10/24 09:44:19;;;;;;;8.00;2.78;;;10.10;99.90;;;8.85;74.11;102043.38;2568038;30;138344;-38
2021/10/24 09:46:56;;;;;;;9.65;3.20;;;10.20;99.90;;;9.03;73.84;102058.69;2568862;30;138895;-38
2021/10/24 09:49:26;;;;;;;4.53;2.30;;;10.30;99.90;;;9.09;71.69;102040.84;2569708;30;137141;-39
2021/10/24 09:51:54;;;;;;;6.63;3.05;;;10.40;99.90;;;9.11;71.88;102057.84;2567604;30;139121;-39
2021/10/24 09:54:30;;;;;;;8.10;3.45;;;10.50;99.90;;;9.14;72.71;102042.00;2567916;30;137658;-38
2021/10/24 09:56:59;;;;;;;9.23;4.32;;;10.50;99.90;;;9.18;72.40;102039.78;2568585;30;139936;-38
2021/10/24 09:59:27;;;;;;;18.50;8.50;;;10.50;99.90;;;9.26;71.61;102025.31;2569149;30;138228;-37
2021/10/24 10:01:57;;;;;;;7.40;3.47;;;10.60;99.90;;;9.31;70.31;102026.50;2568333;30;139360;-38
2021/10/24 10:04:25;;;;;;;7.70;3.10;;;10.70;99.90;;;9.33;70.42;102021.72;2571624;30;137312;-39
2021/10/24 10:06:52;;;;;;;5.55;2.60;;;10.70;99.90;;;9.40;70.31;102030.00;2571023;30;137591;-38
2021/10/24 10:09:20;;;;;;;6.50;2.97;;;10.70;99.90;;;9.45;69.35;102015.88;2568146;30;136685;-39
2021/10/24 10:11:58;;;;;;;6.90;2.90;;;10.80;99.90;;;9.47;68.94;102008.38;2569284;30;137578;-38
2021/10/24 10:14:31;;;;;;;6.93;2.85;;;10.80;99.90;;;9.56;69.15;102009.19;2568900;30;138631;-38
2021/10/24 10:17:06;;;;;;;8.05;3.00;;;10.90;99.90;;;9.60;68.17;102007.81;2567717;30;138644;-39
2021/10/24 10:19:38;;;;;;;6.75;3.35;;;10.90;99.90;;;9.68;69.29;102007.78;2568086;30;137750;-38
2021/10/24 10:22:21;;;;;;;6.10;2.72;;;11.00;99.90;;;9.69;68.80;102003.19;2569152;30;138034;-38
2021/10/24 10:25:09;;;;;;;7.95;2.88;;;11.00;99.90;;;9.72;67.01;102002.81;2567798;30;138464;-38
2021/10/24 10:27:39;;;;;;;8.43;3.08;;;11.10;99.90;;;9.81;67.74;102001.75;2569420;30;138509;-38
2021/10/24 10:30:17;;;;;;;5.45;2.60;;;11.10;99.90;;;9.98;70.31;101996.19;2568797;30;137820;-38
2021/10/24 10:32:51;;;;;;;6.33;2.63;;;11.30;99.90;;;10.04;69.51;102006.38;2569430;30;138446;-39
2021/10/24 10:35:28;;;;;;;9.20;2.80;;;11.40;99.90;;;10.08;68.61;102000.41;2567752;30;138714;-38